Huvudsida
METAR-TAF:

METAR-TAF

Flygplatser :

Forūdgāh-e Shahr-e Kord

Shar-e Kord, Iran

latitud: 32-20N, longitud: 050-51E, höjd: 2078 m

Aktuellt väderrapport

Denna rapport gjordes för 51 minuter sedan, klockan 00:00 UTC
Vind 10 kt från väst/sydväst
Temperatur 2°C
Fuktighet 40%
Tryck 1014 hPa
Sikt 10 km eller mer
Inga moln under 1 500 m eller inga cumulonimbus

METAR: OIFS 230000Z 24010KT CAVOK 02/M10 Q1014

Tid: 05:21 (00:51 UTC)


TAF: saknas

Aktuella väderrapporter och prognoser från 4000 flygplatser (METAR- och TAF-rapporter).

De tillgängliga stationerna syns som gula och röda prickar på kartan.

För musen över prickarna för att se namnen på stationerna.

Klicka sedan för att få väderrapporter och prognoser.

För att ändra kartan: Klicka på de gröna knapparna med ett svart kors på för att zooma in; den gröna knappen med ett streck på för att zooma ut; eller på de gröna pilarna för angränsande kartor.


METAR-TAF: